createdAt,value
2022-12-31T00:00:50.111Z,100410.14
2022-12-31T00:03:28.519Z,100409.27
2022-12-31T00:05:56.304Z,100411.99
2022-12-31T00:08:24.047Z,100409.42
2022-12-31T00:10:51.968Z,100406.43
2022-12-31T00:13:19.687Z,100401.11
2022-12-31T00:15:47.403Z,100395.60
2022-12-31T00:18:15.015Z,100387.02
2022-12-31T00:20:42.833Z,100388.29
2022-12-31T00:23:11.236Z,100385.94
2022-12-31T00:25:39.297Z,100386.17
2022-12-31T00:28:07.079Z,100387.56
2022-12-31T00:30:34.799Z,100386.09
2022-12-31T00:33:02.605Z,100384.45
2022-12-31T00:35:30.982Z,100377.59
2022-12-31T00:37:58.735Z,100376.78
2022-12-31T00:40:28.547Z,100375.00
2022-12-31T00:42:56.309Z,100368.64
2022-12-31T00:45:23.977Z,100365.94
2022-12-31T00:47:51.679Z,100365.29
2022-12-31T00:50:19.397Z,100361.44
2022-12-31T00:52:47.162Z,100358.05
2022-12-31T00:55:14.802Z,100359.32
2022-12-31T00:57:42.544Z,100357.34
2022-12-31T07:00:15.113Z,100281.30
2022-12-31T07:03:15.405Z,100282.38
2022-12-31T07:05:51.721Z,100279.88
2022-12-31T07:08:29.628Z,100284.64
2022-12-31T07:11:07.418Z,100291.44
2022-12-31T07:13:52.399Z,100301.25
2022-12-31T07:16:37.567Z,100302.10
2022-12-31T07:19:14.653Z,100311.75
2022-12-31T07:21:43.741Z,100312.10
2022-12-31T07:24:12.680Z,100310.23
2022-12-31T07:27:00.241Z,100320.59
2022-12-31T07:29:43.064Z,100323.15
2022-12-31T07:32:32.399Z,100325.20
2022-12-31T07:35:09.573Z,100323.71
2022-12-31T07:38:00.751Z,100316.78
2022-12-31T07:40:34.587Z,100321.05
2022-12-31T07:43:30.162Z,100321.10
2022-12-31T07:46:19.656Z,100319.80
2022-12-31T07:48:47.799Z,100319.52
2022-12-31T07:51:16.117Z,100317.04
2022-12-31T07:53:43.783Z,100305.23
2022-12-31T07:56:11.604Z,100312.06
2022-12-31T07:58:48.375Z,100315.69
2022-12-31T08:01:20.285Z,100319.79
2022-12-31T08:04:01.084Z,100317.65
2022-12-31T08:06:53.128Z,100319.37
2022-12-31T08:09:39.551Z,100323.47
2022-12-31T08:12:08.208Z,100325.70
2022-12-31T08:14:48.077Z,100322.68
2022-12-31T08:17:20.507Z,100328.84
2022-12-31T08:19:48.784Z,100332.79
2022-12-31T08:22:19.576Z,100326.36
2022-12-31T08:25:13.355Z,100317.06
2022-12-31T08:28:16.490Z,100331.52
2022-12-31T08:31:09.766Z,100346.32
2022-12-31T08:33:53.717Z,100346.36
2022-12-31T08:36:41.857Z,100351.48
2022-12-31T08:39:43.404Z,100354.91
2022-12-31T08:42:30.497Z,100359.40
2022-12-31T08:45:00.884Z,100366.77
2022-12-31T08:47:44.359Z,100366.63
2022-12-31T08:50:17.903Z,100364.48
2022-12-31T08:52:46.669Z,100356.57
2022-12-31T08:55:16.611Z,100352.02
2022-12-31T08:57:50.633Z,100349.67
2022-12-31T09:00:20.167Z,100344.45
2022-12-31T09:03:00.185Z,100337.86
2022-12-31T09:05:46.349Z,100339.91
2022-12-31T09:08:22.160Z,100346.24
2022-12-31T09:10:52.690Z,100338.95
2022-12-31T09:13:43.665Z,100338.11
2022-12-31T09:17:00.419Z,100333.01
2022-12-31T09:19:28.182Z,100320.10
2022-12-31T09:21:56.645Z,100319.94
2022-12-31T09:24:24.837Z,100326.23
2022-12-31T09:27:08.276Z,100333.06
2022-12-31T09:29:48.233Z,100328.64
2022-12-31T09:32:36.922Z,100327.30
2022-12-31T09:35:26.541Z,100327.64
2022-12-31T09:38:14.109Z,100324.60
2022-12-31T09:40:57.415Z,100315.09
2022-12-31T09:43:47.023Z,100299.30
2022-12-31T09:46:23.767Z,100293.00
2022-12-31T09:49:22.067Z,100298.98
2022-12-31T09:52:14.403Z,100296.42
2022-12-31T09:55:12.971Z,100295.08
2022-12-31T09:58:02.774Z,100298.84
2022-12-31T10:00:44.359Z,100283.38
2022-12-31T10:03:49.164Z,100282.02
2022-12-31T10:06:21.156Z,100274.54
2022-12-31T10:08:58.313Z,100278.28
2022-12-31T10:11:41.023Z,100288.84
2022-12-31T10:14:43.702Z,100286.29
2022-12-31T10:17:42.070Z,100293.26
2022-12-31T10:20:33.031Z,100290.72
2022-12-31T10:23:19.382Z,100274.04
2022-12-31T10:26:03.132Z,100274.89
2022-12-31T10:28:59.773Z,100275.22
2022-12-31T10:31:30.142Z,100259.20
2022-12-31T10:34:26.825Z,100260.71
2022-12-31T10:37:02.382Z,100262.75
2022-12-31T10:39:46.092Z,100257.80
2022-12-31T10:42:28.860Z,100252.00
2022-12-31T10:45:26.675Z,100244.17
2022-12-31T10:48:13.233Z,100232.88
2022-12-31T10:51:19.295Z,100224.67
2022-12-31T10:54:05.083Z,100220.77
2022-12-31T10:56:44.621Z,100223.45
2022-12-31T10:59:27.409Z,100217.30
2022-12-31T11:02:07.494Z,100220.54
2022-12-31T11:04:53.344Z,100224.26
2022-12-31T11:07:58.420Z,100222.88
2022-12-31T11:10:53.689Z,100201.53
2022-12-31T11:13:42.249Z,100192.63
2022-12-31T11:16:53.611Z,100207.29
2022-12-31T11:19:34.426Z,100216.16
2022-12-31T11:22:05.023Z,100212.40
2022-12-31T11:24:53.968Z,100204.38
2022-12-31T11:27:33.546Z,100202.98
2022-12-31T11:30:21.563Z,100211.48
2022-12-31T11:33:20.103Z,100207.84
2022-12-31T11:36:06.331Z,100207.12
2022-12-31T11:38:46.187Z,100191.52
2022-12-31T11:41:26.043Z,100188.77
2022-12-31T11:44:07.373Z,100187.55
2022-12-31T11:46:59.145Z,100197.22
2022-12-31T11:49:58.963Z,100192.22
2022-12-31T11:52:55.002Z,100180.96
2022-12-31T11:55:35.125Z,100174.34
2022-12-31T11:58:16.629Z,100164.81
2022-12-31T12:00:55.952Z,100175.23
2022-12-31T12:03:24.732Z,100185.13
2022-12-31T12:05:52.763Z,100189.89
2022-12-31T12:08:22.431Z,100188.20
2022-12-31T12:11:05.425Z,100183.98
2022-12-31T12:13:35.202Z,100182.44
2022-12-31T12:16:08.172Z,100175.61
2022-12-31T12:18:46.936Z,100177.71
2022-12-31T12:21:18.520Z,100181.52
2022-12-31T12:24:00.217Z,100177.26
2022-12-31T12:26:41.612Z,100168.39
2022-12-31T12:29:18.866Z,100165.83
2022-12-31T12:32:06.349Z,100164.14
2022-12-31T12:34:37.564Z,100159.02
2022-12-31T12:37:08.368Z,100158.17
2022-12-31T12:39:36.844Z,100155.43
2022-12-31T12:42:13.089Z,100146.24
2022-12-31T12:44:42.101Z,100148.32
2022-12-31T12:47:16.019Z,100155.48
2022-12-31T12:49:49.075Z,100149.66
2022-12-31T12:52:59.219Z,100154.45
2022-12-31T12:55:41.410Z,100157.73
2022-12-31T12:58:44.343Z,100146.63
2022-12-31T13:01:47.513Z,100137.52
2022-12-31T13:04:36.816Z,100146.89
2022-12-31T13:07:13.392Z,100137.18
2022-12-31T13:09:48.301Z,100136.17
2022-12-31T13:13:05.218Z,100135.15
2022-12-31T13:15:29.610Z,100140.27
2022-12-31T13:18:11.089Z,100144.22
2022-12-31T13:20:52.864Z,100148.83
2022-12-31T13:23:39.644Z,100148.65
2022-12-31T13:26:16.376Z,100145.05
2022-12-31T13:28:47.095Z,100143.15
2022-12-31T13:31:24.004Z,100139.20
2022-12-31T13:34:00.239Z,100141.41
2022-12-31T13:36:32.816Z,100140.02
2022-12-31T13:39:07.845Z,100138.80
2022-12-31T13:41:52.607Z,100137.08
2022-12-31T13:44:41.910Z,100144.75
2022-12-31T13:47:20.697Z,100149.70
2022-12-31T13:50:22.524Z,100153.42
2022-12-31T13:53:03.222Z,100158.70
2022-12-31T13:55:41.606Z,100153.75
2022-12-31T13:58:22.232Z,100158.71
2022-12-31T14:01:09.594Z,100149.11
2022-12-31T14:04:20.193Z,100152.52
2022-12-31T14:07:18.170Z,100153.68
2022-12-31T14:09:46.854Z,100163.58
2022-12-31T14:12:54.915Z,100157.73
2022-12-31T14:15:31.188Z,100156.73
2022-12-31T14:18:17.867Z,100160.80
2022-12-31T14:20:47.676Z,100175.98
2022-12-31T14:23:31.325Z,100176.16
2022-12-31T14:26:03.554Z,100174.27
2022-12-31T14:29:01.633Z,100173.21
2022-12-31T14:32:13.305Z,100170.98
2022-12-31T14:35:19.055Z,100169.60
2022-12-31T14:38:12.105Z,100167.05
2022-12-31T14:41:13.119Z,100169.95
2022-12-31T14:43:58.946Z,100165.84
2022-12-31T14:46:35.512Z,100161.38
2022-12-31T14:49:14.781Z,100168.37
2022-12-31T14:51:42.487Z,100165.48
2022-12-31T14:54:29.113Z,100172.64
2022-12-31T14:56:57.119Z,100173.16
2022-12-31T14:59:38.797Z,100176.05
2022-12-31T15:02:34.610Z,100173.64
2022-12-31T15:05:17.901Z,100173.30
2022-12-31T15:07:48.710Z,100169.20
2022-12-31T15:10:26.548Z,100170.39
2022-12-31T15:13:07.784Z,100166.98
2022-12-31T15:15:58.798Z,100181.48
2022-12-31T15:18:42.683Z,100183.31
2022-12-31T15:21:46.874Z,100180.56
2022-12-31T15:24:31.407Z,100170.48
2022-12-31T15:27:03.093Z,100182.41
2022-12-31T15:29:36.402Z,100183.08
2022-12-31T15:32:07.745Z,100175.92
2022-12-31T15:34:36.779Z,100179.98
2022-12-31T15:37:26.009Z,100177.02
2022-12-31T15:40:25.285Z,100183.16
2022-12-31T15:42:58.611Z,100183.14
2022-12-31T15:45:33.228Z,100177.14
2022-12-31T15:48:05.570Z,100177.98
2022-12-31T15:50:39.175Z,100181.89
2022-12-31T15:53:07.757Z,100173.64
2022-12-31T15:55:46.446Z,100174.98
2022-12-31T15:58:17.946Z,100178.55
2022-12-31T16:01:15.024Z,100182.29
2022-12-31T16:03:47.855Z,100189.61
2022-12-31T16:06:16.691Z,100184.65
2022-12-31T16:08:46.794Z,100184.47
2022-12-31T16:11:15.607Z,100181.40
2022-12-31T16:13:47.098Z,100180.17
2022-12-31T16:16:26.522Z,100187.70
2022-12-31T16:18:55.352Z,100199.52
2022-12-31T16:21:32.744Z,100200.26
2022-12-31T16:24:06.853Z,100206.77
2022-12-31T16:26:43.420Z,100208.14
2022-12-31T16:29:16.715Z,100203.88
2022-12-31T16:31:46.000Z,100210.41
2022-12-31T16:34:25.650Z,100207.17
2022-12-31T16:37:00.802Z,100207.54
2022-12-31T16:39:32.692Z,100213.01
2022-12-31T16:42:20.033Z,100208.17
2022-12-31T16:44:49.150Z,100209.67
2022-12-31T16:47:19.485Z,100206.40
2022-12-31T16:50:10.233Z,100195.45
2022-12-31T16:52:43.657Z,100194.39
2022-12-31T16:55:18.834Z,100199.98
2022-12-31T16:57:54.164Z,100203.23
2022-12-31T17:00:25.103Z,100208.64
2022-12-31T17:02:59.129Z,100211.19
2022-12-31T17:05:28.423Z,100210.49
2022-12-31T17:07:56.392Z,100208.81
2022-12-31T17:10:26.462Z,100210.20
2022-12-31T17:13:27.096Z,100208.65
2022-12-31T17:15:48.370Z,100205.23
2022-12-31T17:18:22.276Z,100211.36
2022-12-31T17:20:55.270Z,100209.50
2022-12-31T17:23:31.714Z,100203.01
2022-12-31T17:26:04.765Z,100211.38
2022-12-31T17:28:41.661Z,100217.04
2022-12-31T17:31:28.328Z,100215.66
2022-12-31T17:34:14.464Z,100223.70
2022-12-31T17:36:54.725Z,100224.92
2022-12-31T17:39:24.328Z,100221.69
2022-12-31T17:41:56.190Z,100220.46
2022-12-31T17:44:28.651Z,100230.54
2022-12-31T17:46:56.392Z,100227.84
2022-12-31T17:49:28.777Z,100231.25
2022-12-31T17:51:56.584Z,100234.67
2022-12-31T17:54:24.628Z,100237.55
2022-12-31T17:56:53.632Z,100239.27
2022-12-31T17:59:24.200Z,100240.39
2022-12-31T18:01:53.410Z,100241.35
2022-12-31T18:04:21.701Z,100242.17
2022-12-31T18:06:49.360Z,100238.86
2022-12-31T18:09:18.118Z,100235.88
2022-12-31T18:11:46.494Z,100244.17
2022-12-31T18:14:15.551Z,100251.95
2022-12-31T18:16:43.544Z,100248.77
2022-12-31T18:19:37.715Z,100252.63
2022-12-31T18:22:03.539Z,100256.00
2022-12-31T18:24:31.304Z,100257.99
2022-12-31T18:26:59.245Z,100265.52
2022-12-31T18:29:26.935Z,100255.42
2022-12-31T18:31:54.852Z,100246.00
2022-12-31T18:34:22.634Z,100240.69
2022-12-31T18:36:50.522Z,100245.98
2022-12-31T18:39:18.251Z,100247.17
2022-12-31T18:41:51.663Z,100254.50
2022-12-31T18:44:19.531Z,100266.27
2022-12-31T18:46:47.388Z,100250.52
2022-12-31T18:49:15.121Z,100249.14
2022-12-31T18:51:42.779Z,100251.34
2022-12-31T18:54:12.337Z,100252.19
2022-12-31T18:56:46.552Z,100255.11
2022-12-31T18:59:15.063Z,100252.18
2022-12-31T19:01:43.085Z,100257.04
2022-12-31T19:04:26.512Z,100261.36
2022-12-31T19:06:56.078Z,100259.19
2022-12-31T19:09:44.648Z,100264.55
2022-12-31T19:12:14.155Z,100265.06
2022-12-31T19:14:42.145Z,100264.56
2022-12-31T19:19:36.474Z,100277.07
2022-12-31T19:22:04.230Z,100278.98
2022-12-31T19:24:32.035Z,100285.73
2022-12-31T19:27:01.524Z,100281.17
2022-12-31T19:29:30.216Z,100276.08
2022-12-31T19:32:00.669Z,100283.27
2022-12-31T19:34:28.378Z,100284.17
2022-12-31T19:36:56.205Z,100287.45
2022-12-31T19:39:23.974Z,100288.54
2022-12-31T19:41:58.887Z,100289.40
2022-12-31T19:44:27.356Z,100290.27
2022-12-31T19:46:55.265Z,100284.98
2022-12-31T19:49:23.522Z,100279.73
2022-12-31T19:51:51.169Z,100279.77
2022-12-31T19:54:18.956Z,100279.95
2022-12-31T19:56:46.594Z,100288.67
2022-12-31T19:59:14.699Z,100287.01
2022-12-31T20:01:42.464Z,100288.91
2022-12-31T20:04:10.383Z,100289.94
2022-12-31T20:06:38.189Z,100290.98
2022-12-31T20:09:05.903Z,100291.19
2022-12-31T20:11:33.635Z,100289.48
2022-12-31T20:14:01.337Z,100284.56
2022-12-31T20:16:33.799Z,100275.85
2022-12-31T20:19:02.175Z,100268.85
2022-12-31T20:21:29.878Z,100264.09
2022-12-31T20:23:57.845Z,100258.13
2022-12-31T20:26:26.536Z,100261.20
2022-12-31T20:28:54.709Z,100258.95
2022-12-31T20:31:25.293Z,100264.27
2022-12-31T20:33:54.377Z,100270.74
2022-12-31T20:36:23.278Z,100264.77
2022-12-31T20:38:51.179Z,100273.31
2022-12-31T20:41:21.816Z,100280.30
2022-12-31T20:43:50.268Z,100278.94
2022-12-31T20:46:21.646Z,100281.31
2022-12-31T20:48:51.648Z,100284.92
2022-12-31T20:51:20.379Z,100286.98
2022-12-31T20:54:10.136Z,100293.84
2022-12-31T20:56:39.865Z,100295.22
2022-12-31T20:59:09.190Z,100296.07
2022-12-31T21:02:11.608Z,100291.79
2022-12-31T21:04:25.981Z,100292.61
2022-12-31T21:06:53.819Z,100289.68
2022-12-31T21:09:21.556Z,100294.14
2022-12-31T21:12:08.120Z,100294.65
2022-12-31T21:14:39.875Z,100300.48
2022-12-31T21:17:10.660Z,100300.98
2022-12-31T21:19:38.467Z,100297.02
2022-12-31T21:22:06.197Z,100296.52
2022-12-31T21:24:33.962Z,100292.42
2022-12-31T21:27:01.733Z,100295.36
2022-12-31T21:29:34.383Z,100293.48
2022-12-31T21:32:03.583Z,100292.61
2022-12-31T21:34:31.372Z,100292.63
2022-12-31T21:36:59.068Z,100292.32
2022-12-31T21:39:26.747Z,100294.39
2022-12-31T21:41:54.503Z,100296.29
2022-12-31T21:44:26.152Z,100296.29
2022-12-31T21:47:38.623Z,100298.85
2022-12-31T21:50:08.116Z,100298.19
2022-12-31T21:52:35.930Z,100294.45
2022-12-31T21:55:23.497Z,100289.48
2022-12-31T21:58:24.654Z,100286.55
2022-12-31T22:00:58.917Z,100290.13
2022-12-31T22:03:28.229Z,100285.83
2022-12-31T22:06:14.571Z,100287.19
2022-12-31T22:08:44.698Z,100287.85
2022-12-31T22:11:13.496Z,100286.65
2022-12-31T22:13:42.762Z,100285.13
2022-12-31T22:16:13.282Z,100286.64
2022-12-31T22:18:44.102Z,100285.25
2022-12-31T22:21:19.757Z,100283.86
2022-12-31T22:23:50.148Z,100292.41
2022-12-31T22:26:20.152Z,100291.02
2022-12-31T22:28:48.476Z,100288.96
2022-12-31T22:31:19.019Z,100284.52
2022-12-31T22:33:47.477Z,100279.85
2022-12-31T22:36:18.040Z,100282.90
2022-12-31T22:38:46.228Z,100276.39
2022-12-31T22:41:19.897Z,100272.09
2022-12-31T22:43:57.208Z,100282.84
2022-12-31T22:46:30.485Z,100287.44
2022-12-31T22:49:00.167Z,100291.52
2022-12-31T22:51:54.782Z,100303.65
2022-12-31T22:54:16.985Z,100297.52
2022-12-31T22:56:44.672Z,100296.35
2022-12-31T22:59:12.353Z,100298.92
2022-12-31T23:01:40.787Z,100300.98
2022-12-31T23:04:08.683Z,100296.00
2022-12-31T23:06:47.452Z,100294.60
2022-12-31T23:09:35.823Z,100297.85
2022-12-31T23:12:05.837Z,100306.36
2022-12-31T23:14:52.901Z,100310.80
2022-12-31T23:17:42.358Z,100300.06
2022-12-31T23:20:35.731Z,100296.16
2022-12-31T23:23:10.523Z,100282.33
2022-12-31T23:25:50.532Z,100276.86
2022-12-31T23:28:21.764Z,100280.11
2022-12-31T23:30:51.641Z,100284.04
2022-12-31T23:33:22.828Z,100293.96
2022-12-31T23:35:50.513Z,100301.31
2022-12-31T23:38:18.982Z,100301.50
2022-12-31T23:40:46.852Z,100303.20
2022-12-31T23:43:21.161Z,100295.86
2022-12-31T23:45:51.216Z,100292.11
2022-12-31T23:48:18.949Z,100289.20
2022-12-31T23:50:53.525Z,100288.69
2022-12-31T23:53:24.955Z,100295.70
2022-12-31T23:55:54.139Z,100293.77
2022-12-31T23:58:22.538Z,100303.52
